Time;durP1;ratioP1;P1;durP2;ratioP2;P2;SDS_P1;SDS_P2;PMS_P1;PMS_P2;Temp;Humidity;BMP_temperature;BMP_pressure;BME280_temperature;BME280_humidity;BME280_pressure;Samples;Min_cycle;Max_cycle;Signal;HPM_P1;HPM_P2
2023/05/28 00:00:44;;;;;;;19.08;6.03;;;;;;;14.55;63.83;100291.47;5043314;28;20540;-79
2023/05/28 00:03:09;;;;;;;16.55;6.53;;;;;;;14.47;64.23;100292.88;5042912;28;20029;-78
2023/05/28 00:05:35;;;;;;;15.07;5.50;;;;;;;14.44;64.47;100292.59;5042763;28;20037;-79
2023/05/28 00:08:00;;;;;;;12.75;5.95;;;;;;;14.36;64.40;100283.81;5042838;28;21117;-78
2023/05/28 00:10:26;;;;;;;12.90;5.80;;;;;;;14.36;64.27;100280.25;5042975;28;20033;-78
2023/05/28 00:12:51;;;;;;;20.00;7.18;;;;;;;14.38;64.62;100286.28;5042854;28;20013;-78
2023/05/28 00:15:16;;;;;;;16.27;7.95;;;;;;;14.22;64.76;100286.31;5042752;28;20119;-78
2023/05/28 00:17:42;;;;;;;12.60;5.50;;;;;;;14.15;65.18;100285.78;5041073;28;20398;-79
2023/05/28 00:20:07;;;;;;;10.97;6.33;;;;;;;14.08;65.39;100274.28;5042104;28;20091;-78
2023/05/28 00:22:33;;;;;;;12.32;6.43;;;;;;;14.16;65.17;100281.09;5042820;28;20262;-79
2023/05/28 00:24:58;;;;;;;15.13;6.77;;;;;;;14.00;65.78;100283.88;5042668;28;20463;-78
2023/05/28 00:27:23;;;;;;;12.73;6.37;;;;;;;13.93;65.90;100278.69;5042457;28;20278;-79
2023/05/28 00:29:48;;;;;;;11.80;5.75;;;;;;;13.91;66.30;100277.31;5042189;28;20266;-78
2023/05/28 00:32:14;;;;;;;20.03;6.50;;;;;;;13.91;66.28;100280.88;5042586;28;20029;-78
2023/05/28 00:34:39;;;;;;;11.23;5.55;;;;;;;13.84;66.23;100278.41;5042925;28;21087;-78
2023/05/28 00:37:04;;;;;;;15.13;7.70;;;;;;;13.89;65.95;100275.66;5042110;28;20558;-78
2023/05/28 00:39:30;;;;;;;14.40;7.00;;;;;;;13.84;66.26;100278.41;5041813;28;20277;-79
2023/05/28 00:42:02;;;;;;;17.88;6.63;;;;;;;13.76;66.72;100273.47;5042774;28;20025;-79
2023/05/28 00:44:28;;;;;;;18.23;6.60;;;;;;;13.76;66.45;100276.22;5040993;28;21156;-78
2023/05/28 00:46:55;;;;;;;15.93;6.63;;;;;;;13.74;66.36;100273.75;5041978;28;20029;-78
2023/05/28 00:49:21;;;;;;;20.20;6.30;;;;;;;13.71;66.39;100277.03;5041609;28;20044;-79
2023/05/28 00:51:47;;;;;;;14.55;6.05;;;;;;;13.67;67.00;100269.66;5042343;28;20110;-78
2023/05/28 00:54:12;;;;;;;16.45;9.05;;;;;;;13.69;66.98;100267.47;5042486;28;20478;-79
2023/05/28 00:56:37;;;;;;;20.57;7.20;;;;;;;13.72;66.96;100270.47;5042264;28;20462;-78
2023/05/28 00:59:04;;;;;;;14.18;5.35;;;;;;;13.69;67.25;100272.94;5044591;28;20258;-79
2023/05/28 01:01:29;;;;;;;13.23;5.60;;;;;;;13.69;67.21;100270.19;5046521;28;20093;-79
2023/05/28 01:03:55;;;;;;;12.13;6.30;;;;;;;13.72;67.10;100266.91;5045971;28;20033;-78
2023/05/28 01:06:21;;;;;;;17.47;6.63;;;;;;;13.73;66.58;100263.06;5046093;28;20429;-78
2023/05/28 01:08:47;;;;;;;16.90;6.18;;;;;;;13.81;66.40;100262.50;5045520;28;20269;-79
2023/05/28 01:11:18;;;;;;;16.83;6.07;;;;;;;13.85;66.49;100260.06;5045768;28;20029;-79
2023/05/28 01:13:44;;;;;;;12.15;5.90;;;;;;;13.81;66.87;100265.25;5046233;28;20033;-79
2023/05/28 01:16:10;;;;;;;18.23;8.27;;;;;;;13.77;66.66;100269.63;5046022;28;20040;-79
2023/05/28 01:18:39;;;;;;;13.40;7.22;;;;;;;13.78;66.58;100268.53;5045393;28;20460;-78
2023/05/28 01:21:06;;;;;;;14.88;7.45;;;;;;;13.80;66.50;100265.53;5045335;28;20049;-79
2023/05/28 01:23:40;;;;;;;15.23;6.63;;;;;;;13.75;66.34;100269.09;5044742;28;20056;-78
2023/05/28 01:26:07;;;;;;;14.10;6.82;;;;;;;13.65;66.71;100268.00;5046011;28;20021;-79
2023/05/28 01:28:32;;;;;;;14.35;5.72;;;;;;;13.57;66.97;100263.06;5045419;28;20048;-78
2023/05/28 01:30:58;;;;;;;17.25;6.70;;;;;;;13.61;67.16;100266.88;5045565;28;20025;-78
2023/05/28 01:33:24;;;;;;;18.13;8.32;;;;;;;13.56;67.35;100264.16;5045394;28;20040;-78
2023/05/28 01:35:52;;;;;;;12.10;5.47;;;;;;;13.49;67.37;100264.38;5045136;28;20037;-78
2023/05/28 01:38:21;;;;;;;13.05;6.03;;;;;;;13.50;67.29;100259.72;5044493;28;21194;-79
2023/05/28 01:40:48;;;;;;;14.77;6.90;;;;;;;13.49;67.92;100258.06;5045561;28;20029;-78
2023/05/28 01:43:15;;;;;;;12.52;6.95;;;;;;;13.51;67.58;100256.72;5045349;28;20059;-79
2023/05/28 01:45:41;;;;;;;15.07;8.07;;;;;;;13.43;67.91;100260.81;5044853;28;20035;-78
2023/05/28 01:48:07;;;;;;;14.43;6.70;;;;;;;13.45;67.96;100252.31;5044828;28;20385;-78
2023/05/28 01:50:32;;;;;;;12.57;6.57;;;;;;;13.40;67.33;100250.41;5045591;28;20112;-78
2023/05/28 01:52:59;;;;;;;16.27;7.20;;;;;;;13.30;67.78;100255.88;5045163;28;20280;-78
2023/05/28 01:55:24;;;;;;;18.17;7.47;;;;;;;13.23;68.30;100249.81;5045472;28;20171;-78
2023/05/28 01:57:50;;;;;;;16.73;7.10;;;;;;;13.21;68.29;100249.28;5045248;28;20111;-78
2023/05/28 02:00:15;;;;;;;16.10;6.97;;;;;;;13.24;67.70;100246.81;5044734;28;20526;-78
2023/05/28 02:02:42;;;;;;;16.45;7.75;;;;;;;13.13;68.14;100248.72;5044586;28;20028;-78
2023/05/28 02:05:08;;;;;;;16.15;8.10;;;;;;;13.01;68.46;100246.22;5045403;28;20048;-78
2023/05/28 02:07:33;;;;;;;13.93;5.97;;;;;;;12.95;69.21;100242.66;5045115;28;20033;-78
2023/05/28 02:09:58;;;;;;;11.37;6.63;;;;;;;12.94;69.17;100237.44;5044351;28;20029;-78
2023/05/28 02:12:23;;;;;;;20.13;8.20;;;;;;;12.98;69.17;100238.53;5044751;28;20257;-78
2023/05/28 02:14:49;;;;;;;15.63;6.80;;;;;;;12.96;68.58;100233.34;5044839;28;20608;-78
2023/05/28 02:17:16;;;;;;;15.23;7.80;;;;;;;13.02;69.18;100233.34;5043513;28;20262;-78
2023/05/28 02:19:42;;;;;;;13.13;6.53;;;;;;;12.94;69.23;100237.44;5043476;28;20069;-78
2023/05/28 02:22:11;;;;;;;15.95;6.57;;;;;;;12.93;69.42;100236.63;5044447;28;20079;-78
2023/05/28 02:24:40;;;;;;;11.73;5.85;;;;;;;12.98;69.45;100232.28;5044632;28;20032;-79
2023/05/28 02:27:06;;;;;;;16.40;8.00;;;;;;;12.98;69.33;100233.06;5044137;28;20036;-78
2023/05/28 02:29:32;;;;;;;16.35;7.30;;;;;;;13.00;69.44;100235.53;5044027;28;20033;-78
2023/05/28 02:31:57;;;;;;;19.67;8.85;;;;;;;13.01;69.39;100238.03;5044679;28;20040;-78
2023/05/28 02:34:22;;;;;;;16.97;7.83;;;;;;;13.12;68.55;100241.59;5044716;28;20045;-79
2023/05/28 02:36:47;;;;;;;15.23;7.50;;;;;;;13.23;68.78;100244.34;5044383;28;21572;-78
2023/05/28 02:39:13;;;;;;;14.37;6.63;;;;;;;13.33;68.05;100236.16;5043431;28;20341;-79
2023/05/28 02:41:38;;;;;;;13.45;6.80;;;;;;;13.35;68.01;100244.94;5044288;28;20327;-77
2023/05/28 02:44:03;;;;;;;14.65;6.40;;;;;;;13.29;68.13;100240.53;5044091;28;20032;-79
2023/05/28 02:46:29;;;;;;;15.83;6.13;;;;;;;13.27;68.35;100250.94;5044100;28;20067;-78
2023/05/28 02:48:54;;;;;;;13.48;6.72;;;;;;;13.16;68.07;100250.09;5043765;28;20268;-78
2023/05/28 02:51:19;;;;;;;12.38;6.65;;;;;;;13.05;68.66;100244.59;5044217;28;20036;-78
2023/05/28 02:53:45;;;;;;;13.50;7.35;;;;;;;13.12;68.53;100238.84;5045064;28;20036;-76
2023/05/28 02:56:10;;;;;;;12.05;6.97;;;;;;;13.00;68.86;100238.28;5044123;28;20060;-76
2023/05/28 02:58:36;;;;;;;13.98;7.18;;;;;;;12.99;68.25;100234.72;5043128;28;20033;-76
2023/05/28 03:01:01;;;;;;;18.52;7.10;;;;;;;12.94;68.76;100241.00;5044380;28;20090;-76
2023/05/28 03:03:27;;;;;;;14.38;6.88;;;;;;;13.18;67.77;100243.25;5043953;28;20527;-76
2023/05/28 03:05:52;;;;;;;14.65;7.38;;;;;;;13.11;67.83;100234.50;5044035;28;20074;-76
2023/05/28 03:08:17;;;;;;;19.23;7.23;;;;;;;12.88;68.83;100243.97;5043264;28;20603;-76
2023/05/28 03:10:43;;;;;;;15.18;7.13;;;;;;;12.85;68.89;100239.91;5043367;28;20262;-76
2023/05/28 03:13:08;;;;;;;15.53;6.77;;;;;;;12.84;69.05;100243.69;5043721;28;20486;-76
2023/05/28 03:15:33;;;;;;;20.13;7.60;;;;;;;12.82;68.86;100243.16;5043442;28;20262;-76
2023/05/28 03:17:59;;;;;;;15.80;7.63;;;;;;;12.71;69.64;100234.91;5043583;28;20120;-76
2023/05/28 03:20:24;;;;;;;17.00;7.70;;;;;;;12.70;69.66;100238.75;5042863;28;20274;-76
2023/05/28 03:22:56;;;;;;;12.02;6.95;;;;;;;12.66;69.68;100243.09;5043525;28;20111;-76
2023/05/28 03:25:21;;;;;;;16.05;7.18;;;;;;;12.65;69.23;100243.38;5043337;28;20111;-76
2023/05/28 03:27:46;;;;;;;21.77;7.07;;;;;;;12.55;69.91;100241.41;5043387;28;20033;-76
2023/05/28 03:30:12;;;;;;;15.57;6.77;;;;;;;12.54;69.57;100245.22;5042800;28;20037;-76
2023/05/28 03:32:37;;;;;;;12.15;6.35;;;;;;;12.58;69.96;100235.41;5043232;28;20246;-76
2023/05/28 03:35:03;;;;;;;13.60;6.18;;;;;;;12.56;69.93;100238.41;5043102;28;20112;-75
2023/05/28 03:37:28;;;;;;;16.02;6.95;;;;;;;12.55;69.81;100236.75;5043319;28;20115;-76
2023/05/28 03:39:54;;;;;;;17.27;7.50;;;;;;;12.82;69.28;100245.88;5042681;28;20083;-76
2023/05/28 03:42:19;;;;;;;16.30;6.85;;;;;;;12.77;69.34;100248.63;5043201;28;20766;-76
2023/05/28 03:44:44;;;;;;;15.02;7.75;;;;;;;12.88;69.00;100243.97;5042691;28;20505;-76
2023/05/28 03:47:10;;;;;;;11.97;6.00;;;;;;;12.76;69.42;100244.22;5043069;28;20040;-77
2023/05/28 03:49:35;;;;;;;14.07;7.87;;;;;;;12.79;69.56;100246.44;5042979;28;20826;-76
2023/05/28 03:52:01;;;;;;;20.23;7.17;;;;;;;12.77;69.72;100248.63;5043019;28;20274;-76
2023/05/28 03:54:26;;;;;;;13.35;7.07;;;;;;;12.69;69.78;100245.28;5043133;28;20918;-76
2023/05/28 03:56:51;;;;;;;13.13;6.93;;;;;;;12.69;69.50;100250.75;5042829;28;20033;-76
2023/05/28 03:59:17;;;;;;;15.13;6.80;;;;;;;12.65;69.64;100244.16;5042454;28;20262;-76
2023/05/28 04:01:42;;;;;;;14.30;6.80;;;;;;;12.56;70.15;100251.25;5042623;28;20262;-76
2023/05/28 04:04:07;;;;;;;12.30;6.43;;;;;;;12.67;69.75;100260.34;5043214;28;20266;-76
2023/05/28 04:06:33;;;;;;;13.27;7.13;;;;;;;12.59;70.11;100242.53;5042753;28;20090;-76
2023/05/28 04:08:58;;;;;;;15.65;6.97;;;;;;;12.64;70.05;100245.28;5042600;28;20272;-76
2023/05/28 04:11:24;;;;;;;13.98;7.18;;;;;;;12.74;69.75;100244.50;5042776;28;20486;-76
2023/05/28 04:13:53;;;;;;;14.73;6.97;;;;;;;13.01;69.03;100248.97;5042868;28;20025;-76
2023/05/28 04:16:22;;;;;;;14.70;7.35;;;;;;;13.02;68.99;100238.81;5043227;28;20037;-76
2023/05/28 04:18:47;;;;;;;12.63;5.50;;;;;;;13.03;69.02;100229.53;5042431;28;20040;-75
2023/05/28 04:21:13;;;;;;;15.73;6.68;;;;;;;12.77;69.82;100243.13;5042644;28;20057;-76
2023/05/28 04:23:38;;;;;;;10.73;7.10;;;;;;;12.85;69.95;100245.38;5042467;28;20128;-77
2023/05/28 04:26:06;;;;;;;14.20;7.13;;;;;;;12.71;70.03;100239.56;5042755;28;20281;-76
2023/05/28 04:28:31;;;;;;;15.20;8.25;;;;;;;12.66;70.93;100254.03;5042564;28;20272;-76
2023/05/28 04:31:00;;;;;;;14.30;6.38;;;;;;;13.01;69.96;100259.91;5042788;28;20037;-76
2023/05/28 04:33:28;;;;;;;13.93;7.00;;;;;;;13.04;69.74;100258.53;5044160;28;20037;-76
2023/05/28 04:35:54;;;;;;;15.80;6.95;;;;;;;13.11;70.07;100253.66;5044824;28;20706;-76
2023/05/28 04:38:20;;;;;;;16.27;7.63;;;;;;;13.12;70.01;100247.06;5046165;28;20028;-76
2023/05/28 04:40:45;;;;;;;21.45;8.93;;;;;;;13.24;69.45;100251.50;5046325;28;20037;-76
2023/05/28 04:43:11;;;;;;;15.02;6.80;;;;;;;13.26;69.53;100254.78;5047107;28;20036;-76
2023/05/28 04:45:37;;;;;;;17.60;8.15;;;;;;;13.23;69.83;100260.78;5046565;28;20035;-75
2023/05/28 04:48:04;;;;;;;15.15;7.38;;;;;;;13.24;69.82;100255.03;5046258;28;20037;-77
2023/05/28 04:50:30;;;;;;;15.80;8.32;;;;;;;13.37;69.36;100256.44;5046930;28;20044;-77
2023/05/28 04:52:55;;;;;;;13.63;6.97;;;;;;;13.33;69.65;100249.84;5046372;28;20029;-76
2023/05/28 04:55:20;;;;;;;13.70;7.03;;;;;;;13.40;69.74;100255.88;5046476;28;20041;-77
2023/05/28 04:57:46;;;;;;;19.00;7.77;;;;;;;13.60;68.58;100259.78;5046513;28;20262;-76
2023/05/28 05:00:14;;;;;;;16.10;6.22;;;;;;;13.59;68.71;100266.34;5045964;28;20254;-76
2023/05/28 05:02:41;;;;;;;14.98;7.88;;;;;;;13.67;68.11;100266.91;5046161;28;20037;-76
2023/05/28 05:05:07;;;;;;;15.00;8.05;;;;;;;13.54;68.58;100269.91;5046360;28;20083;-76
2023/05/28 05:07:34;;;;;;;14.13;7.38;;;;;;;13.53;68.99;100267.41;5046341;28;20896;-75
2023/05/28 05:10:00;;;;;;;13.45;7.53;;;;;;;13.57;69.14;100275.91;5045451;28;20056;-76
2023/05/28 05:12:25;;;;;;;14.80;6.93;;;;;;;13.63;69.69;100280.31;5046298;28;21184;-75
2023/05/28 05:14:50;;;;;;;20.90;7.83;;;;;;;13.77;68.91;100275.94;5046087;28;20308;-75
2023/05/28 05:17:15;;;;;;;17.10;8.03;;;;;;;13.79;69.07;100281.13;5046124;28;20289;-76
2023/05/28 05:19:41;;;;;;;19.63;7.90;;;;;;;13.87;67.41;100280.59;5045564;28;20970;-76
2023/05/28 05:22:06;;;;;;;15.68;7.57;;;;;;;14.03;66.50;100280.59;5045753;28;20274;-76
2023/05/28 05:24:31;;;;;;;14.57;7.07;;;;;;;13.96;67.52;100278.13;5046057;28;20410;-76
2023/05/28 05:26:57;;;;;;;18.23;7.67;;;;;;;13.91;67.57;100274.56;5045741;28;20036;-76
2023/05/28 05:29:22;;;;;;;11.70;6.50;;;;;;;13.97;67.60;100278.97;5045422;28;20273;-76
2023/05/28 05:31:47;;;;;;;15.23;7.53;;;;;;;14.05;67.14;100270.19;5045671;28;20083;-75
2023/05/28 05:34:12;;;;;;;22.53;8.13;;;;;;;14.08;67.18;100275.09;5045878;28;20265;-76
2023/05/28 05:36:38;;;;;;;16.45;7.03;;;;;;;14.22;65.97;100280.00;5045934;28;20609;-76
2023/05/28 05:39:03;;;;;;;17.10;7.30;;;;;;;14.26;65.85;100285.78;5045090;28;20047;-76
2023/05/28 05:41:28;;;;;;;13.63;7.78;;;;;;;14.40;65.64;100286.03;5045989;28;20415;-76
2023/05/28 05:43:53;;;;;;;19.67;7.97;;;;;;;14.37;65.90;100292.88;5044994;28;20709;-76
2023/05/28 05:46:19;;;;;;;24.50;8.00;;;;;;;14.39;65.98;100287.09;5045632;28;20292;-76
2023/05/28 05:48:45;;;;;;;23.83;7.95;;;;;;;14.42;66.56;100283.81;5045146;28;20270;-76
2023/05/28 05:51:16;;;;;;;14.90;7.40;;;;;;;14.47;66.42;100272.84;5045484;28;20072;-75
2023/05/28 05:53:42;;;;;;;13.75;7.85;;;;;;;14.57;66.01;100281.03;5045590;28;20277;-76
2023/05/28 05:56:08;;;;;;;19.02;7.30;;;;;;;14.59;66.24;100283.50;5045688;28;20025;-76
2023/05/28 05:58:33;;;;;;;20.73;7.53;;;;;;;14.67;65.81;100287.56;5044952;28;20040;-76
2023/05/28 06:00:58;;;;;;;22.23;7.90;;;;;;;14.67;65.62;100295.81;5045366;28;20037;-77
2023/05/28 06:03:23;;;;;;;23.67;9.53;;;;;;;14.87;65.03;100288.66;5045278;28;20033;-76
2023/05/28 06:05:50;;;;;;;20.50;9.43;;;;;;;14.94;64.42;100291.91;5045241;28;20258;-76
2023/05/28 06:08:15;;;;;;;24.48;10.25;;;;;;;14.86;64.72;100297.97;5044623;28;20305;-76
2023/05/28 06:10:41;;;;;;;18.20;9.03;;;;;;;14.91;64.85;100290.53;5045184;28;20056;-76
2023/05/28 06:13:06;;;;;;;16.55;8.88;;;;;;;14.85;65.14;100296.34;5045302;28;20273;-76
2023/05/28 06:15:31;;;;;;;23.00;9.90;;;;;;;14.94;64.47;100289.16;5045210;28;20036;-76
2023/05/28 06:17:58;;;;;;;20.60;9.35;;;;;;;15.12;64.19;100295.09;5044600;28;20025;-75
2023/05/28 06:20:23;;;;;;;18.73;8.00;;;;;;;15.09;64.43;100292.94;5044777;28;20087;-77
2023/05/28 06:22:50;;;;;;;16.98;7.88;;;;;;;15.03;64.73;100287.47;5044404;28;20068;-78
2023/05/28 06:25:16;;;;;;;19.00;8.77;;;;;;;15.17;63.82;100286.84;5044519;28;21277;-76
2023/05/28 06:27:41;;;;;;;26.25;10.02;;;;;;;15.34;62.39;100289.22;5044357;28;20029;-77
2023/05/28 06:30:07;;;;;;;18.20;8.20;;;;;;;15.28;62.67;100288.44;5044293;28;20107;-76
2023/05/28 06:32:33;;;;;;;15.90;8.75;;;;;;;15.28;63.05;100288.44;5044095;28;20150;-76
2023/05/28 06:34:58;;;;;;;17.67;7.30;;;;;;;15.22;64.10;100283.25;5044294;28;20036;-75
2023/05/28 06:37:23;;;;;;;19.43;7.47;;;;;;;15.20;64.16;100286.28;5044057;28;20044;-76
2023/05/28 06:39:48;;;;;;;20.97;9.47;;;;;;;15.34;63.70;100282.91;5043585;28;20341;-76
2023/05/28 06:42:14;;;;;;;24.47;9.93;;;;;;;15.38;63.60;100282.06;5044105;28;20036;-76
2023/05/28 06:44:39;;;;;;;25.40;9.93;;;;;;;15.54;63.39;100279.19;5043901;28;20665;-76
2023/05/28 06:47:05;;;;;;;18.83;10.35;;;;;;;15.45;63.83;100280.91;5044009;28;20481;-76
2023/05/28 06:49:30;;;;;;;17.42;9.73;;;;;;;15.63;63.00;100291.22;5043566;28;20091;-76
2023/05/28 06:51:55;;;;;;;18.83;9.97;;;;;;;15.69;61.95;100286.50;5043704;28;20059;-75
2023/05/28 06:54:21;;;;;;;18.90;9.68;;;;;;;15.57;62.22;100295.13;5044394;28;20261;-75
2023/05/28 06:56:46;;;;;;;21.38;10.00;;;;;;;15.74;62.23;100300.19;5043063;28;20036;-77
2023/05/28 06:59:11;;;;;;;25.97;11.00;;;;;;;15.71;62.70;100287.03;5043820;28;20047;-77
2023/05/28 07:01:37;;;;;;;20.07;9.67;;;;;;;15.70;62.72;100290.88;5043978;28;20262;-76
2023/05/28 07:04:02;;;;;;;23.27;11.55;;;;;;;15.79;63.20;100295.78;5044054;28;20257;-75
2023/05/28 07:06:27;;;;;;;19.35;9.90;;;;;;;15.83;63.94;100302.34;5044384;28;20055;-76
2023/05/28 07:08:52;;;;;;;20.90;9.60;;;;;;;15.99;62.63;100298.34;5042622;28;20543;-76
2023/05/28 07:11:18;;;;;;;18.48;10.63;;;;;;;16.03;61.80;100298.63;5044157;28;20048;-76
2023/05/28 07:13:44;;;;;;;21.23;9.52;;;;;;;16.07;61.99;100296.13;5044297;28;20520;-75
2023/05/28 07:16:10;;;;;;;16.48;8.68;;;;;;;16.07;62.83;100296.94;5044102;28;20029;-75
2023/05/28 07:18:35;;;;;;;19.38;9.77;;;;;;;16.10;63.04;100292.81;5043668;28;20094;-77
2023/05/28 07:21:01;;;;;;;19.40;10.13;;;;;;;16.14;63.54;100298.53;5043837;28;20053;-73
2023/05/28 07:23:27;;;;;;;19.55;9.55;;;;;;;16.27;63.14;100300.59;5043669;28;20098;-77
2023/05/28 07:25:52;;;;;;;20.70;9.45;;;;;;;16.37;62.36;100304.38;5043304;28;20277;-76
2023/05/28 07:28:17;;;;;;;18.53;8.50;;;;;;;16.41;61.56;100311.75;5043507;28;20044;-76
2023/05/28 07:30:42;;;;;;;17.50;9.93;;;;;;;16.39;61.92;100308.47;5044037;28;20501;-76
2023/05/28 07:33:08;;;;;;;19.13;9.88;;;;;;;16.45;62.32;100312.78;5043308;28;20266;-77
2023/05/28 07:35:35;;;;;;;18.95;10.20;;;;;;;16.49;62.51;100310.31;5044060;28;20028;-76
2023/05/28 07:38:02;;;;;;;21.88;9.18;;;;;;;16.50;63.90;100313.84;5043480;28;20494;-75
2023/05/28 07:40:27;;;;;;;19.52;10.50;;;;;;;16.59;63.10;100323.13;5043857;28;20087;-76
2023/05/28 07:42:52;;;;;;;26.17;10.68;;;;;;;16.63;62.73;100315.94;5043507;28;20040;-76
2023/05/28 07:45:17;;;;;;;24.73;9.17;;;;;;;16.67;62.74;100324.41;5043483;28;20047;-76
2023/05/28 07:47:43;;;;;;;17.47;8.63;;;;;;;16.61;62.54;100315.41;5043251;28;20033;-76
2023/05/28 07:50:09;;;;;;;15.23;8.73;;;;;;;16.72;61.93;100316.09;5043120;28;20270;-75
2023/05/28 07:52:35;;;;;;;19.83;8.43;;;;;;;16.76;61.38;100310.84;5043614;28;20822;-75
2023/05/28 07:55:01;;;;;;;14.68;6.45;;;;;;;16.76;61.35;100306.13;5044062;28;20035;-75
2023/05/28 07:57:27;;;;;;;14.90;6.28;;;;;;;16.84;60.95;100312.13;5043353;28;20032;-75
2023/05/28 07:59:52;;;;;;;16.67;7.43;;;;;;;16.88;60.60;100318.69;5043086;28;20685;-75
2023/05/28 08:02:17;;;;;;;12.75;5.55;;;;;;;17.01;60.63;100308.88;5043389;28;20056;-75
2023/05/28 08:04:43;;;;;;;15.73;6.75;;;;;;;17.06;59.29;100319.84;5043130;28;20033;-73
2023/05/28 08:07:10;;;;;;;15.73;7.03;;;;;;;17.02;60.23;100318.78;5043001;28;20064;-73
2023/05/28 08:09:35;;;;;;;13.27;5.93;;;;;;;17.15;60.54;100318.09;5043090;28;20112;-74
2023/05/28 08:12:01;;;;;;;13.15;5.68;;;;;;;17.30;60.65;100316.25;5043343;28;20120;-70
2023/05/28 08:14:27;;;;;;;9.80;5.28;;;;;;;17.38;60.94;100317.50;5043362;28;20047;-70
2023/05/28 08:16:52;;;;;;;14.20;6.70;;;;;;;17.49;59.00;100309.91;5043413;28;20117;-72
2023/05/28 08:19:18;;;;;;;12.27;5.22;;;;;;;17.51;58.90;100315.94;5043077;28;20409;-77
2023/05/28 08:21:44;;;;;;;11.48;5.03;;;;;;;17.59;58.17;100312.50;5043399;28;20733;-78
2023/05/28 08:24:10;;;;;;;10.57;5.60;;;;;;;17.66;58.38;100305.78;5042874;28;20091;-77
2023/05/28 08:26:36;;;;;;;18.55;5.63;;;;;;;17.81;57.40;100304.72;5043271;28;20296;-76
2023/05/28 08:29:01;;;;;;;14.63;5.57;;;;;;;17.82;56.48;100307.19;5042851;28;20045;-77
2023/05/28 08:31:26;;;;;;;11.55;4.45;;;;;;;17.92;56.56;100306.19;5042962;28;20085;-74
2023/05/28 08:33:52;;;;;;;9.20;4.78;;;;;;;17.97;56.26;100303.38;5043001;28;20426;-76
2023/05/28 08:36:17;;;;;;;14.70;5.30;;;;;;;18.05;56.12;100299.09;5043046;28;20234;-76
2023/05/28 08:38:42;;;;;;;14.87;5.70;;;;;;;18.16;55.52;100304.44;5042807;28;20734;-77
2023/05/28 08:41:07;;;;;;;14.53;5.47;;;;;;;18.16;55.68;100298.91;5043572;28;20274;-76
2023/05/28 08:43:33;;;;;;;10.87;4.97;;;;;;;18.20;56.06;100294.47;5043117;28;20501;-77
2023/05/28 08:45:58;;;;;;;20.73;6.50;;;;;;;18.29;55.62;100292.63;5042910;28;21022;-78
2023/05/28 08:48:25;;;;;;;24.52;7.07;;;;;;;18.39;54.95;100296.31;5039501;28;20060;-77
2023/05/28 08:50:51;;;;;;;14.40;5.45;;;;;;;18.39;53.13;100290.78;5042484;28;20075;-79
2023/05/28 08:53:20;;;;;;;13.13;4.55;;;;;;;18.57;53.17;100286.28;5042830;28;20471;-76
2023/05/28 08:55:46;;;;;;;11.07;5.32;;;;;;;18.64;53.29;100285.91;5042885;28;20033;-76
2023/05/28 08:58:12;;;;;;;15.02;5.32;;;;;;;18.64;53.60;100286.72;5042450;28;20099;-78
2023/05/28 09:00:38;;;;;;;12.02;5.57;;;;;;;18.76;53.73;100275.16;5043104;28;21039;-77
2023/05/28 09:03:07;;;;;;;14.47;5.93;;;;;;;18.83;53.72;100279.44;5043025;28;20037;-77
2023/05/28 09:05:36;;;;;;;11.63;5.85;;;;;;;19.00;51.89;100271.34;5042926;28;20273;-78
2023/05/28 09:08:02;;;;;;;9.85;4.78;;;;;;;19.09;52.67;100271.44;5042247;28;20103;-76
2023/05/28 09:10:27;;;;;;;10.93;4.03;;;;;;;19.15;51.61;100272.16;5042665;28;20482;-76
2023/05/28 09:12:58;;;;;;;15.20;3.67;;;;;;;19.22;51.47;100264.25;5042771;28;20040;-77
2023/05/28 09:15:24;;;;;;;21.20;4.68;;;;;;;19.37;49.85;100262.25;5042508;28;20414;-77
2023/05/28 09:17:49;;;;;;;11.27;4.13;;;;;;;19.54;50.73;100263.53;5042746;28;20043;-77
2023/05/28 09:20:15;;;;;;;12.05;4.38;;;;;;;19.59;50.44;100266.16;5044718;28;20040;-77
2023/05/28 09:22:40;;;;;;;7.38;3.70;;;;;;;19.66;48.96;100258.25;5046624;28;20021;-78
2023/05/28 09:25:09;;;;;;;18.40;3.97;;;;;;;19.74;49.15;100261.38;5046670;28;20043;-77
2023/05/28 09:27:36;;;;;;;9.23;3.70;;;;;;;19.86;49.50;100261.63;5046217;28;20040;-76
2023/05/28 09:30:08;;;;;;;10.95;4.97;;;;;;;20.01;48.46;100256.84;5046142;28;20055;-76
2023/05/28 09:32:34;;;;;;;9.00;3.63;;;;;;;20.08;46.69;100250.88;5046358;28;20025;-77
2023/05/28 09:35:00;;;;;;;8.18;4.03;;;;;;;20.22;48.02;100254.34;5046623;28;20058;-77
2023/05/28 09:37:27;;;;;;;7.80;4.03;;;;;;;20.27;47.21;100248.69;5046059;28;20025;-77
2023/05/28 09:40:04;;;;;;;13.98;3.65;;;;;;;20.32;48.27;100258.00;5045742;28;20047;-78
2023/05/28 09:42:41;;;;;;;15.57;3.70;;;;;;;20.37;49.11;100246.75;5046384;28;20840;-77
2023/05/28 09:45:08;;;;;;;12.63;4.18;;;;;;;20.44;48.14;100251.84;5046270;28;20036;-77
2023/05/28 09:47:42;;;;;;;26.13;4.95;;;;;;;20.50;48.14;100242.25;5044923;28;20064;-79
2023/05/28 09:50:07;;;;;;;;;;;;;;;20.57;46.97;100248.13;5046008;28;20040;-78
2023/05/28 09:52:34;;;;;;;9.40;3.03;;;;;;;20.65;47.96;100249.28;5045546;28;20506;-78
2023/05/28 09:55:04;;;;;;;7.78;3.08;;;;;;;20.71;47.48;100244.41;5045862;28;20462;-78
2023/05/28 09:57:32;;;;;;;13.25;3.40;;;;;;;20.85;47.62;100239.56;5046304;28;20037;-79
2023/05/28 10:00:01;;;;;;;8.65;2.50;;;;;;;20.88;46.88;100247.25;5044928;28;20059;-78
2023/05/28 10:02:43;;;;;;;8.48;3.47;;;;;;;20.88;44.20;100244.47;5043835;28;20037;-77
2023/05/28 10:05:13;;;;;;;12.55;3.38;;;;;;;21.01;45.42;100253.00;5044955;28;20052;-79
2023/05/28 10:07:44;;;;;;;8.27;2.88;;;;;;;21.17;45.82;100244.19;5045473;28;20032;-79
2023/05/28 10:10:12;;;;;;;6.85;2.25;;;;;;;21.20;45.56;100249.09;5045517;28;20045;-78
2023/05/28 10:12:38;;;;;;;6.35;2.78;;;;;;;21.20;44.09;100251.84;5045320;28;20041;-78
2023/05/28 10:15:06;;;;;;;5.03;2.25;;;;;;;21.27;44.35;100249.44;5045255;28;20371;-79
2023/05/28 10:17:31;;;;;;;6.22;2.67;;;;;;;21.31;44.07;100252.34;5045671;28;20032;-78
2023/05/28 10:19:56;;;;;;;6.68;2.50;;;;;;;21.48;44.11;100236.84;5044909;28;20410;-78
2023/05/28 10:22:22;;;;;;;6.77;2.80;;;;;;;21.43;43.90;100246.16;5044804;28;20128;-78
2023/05/28 10:24:48;;;;;;;10.65;2.55;;;;;;;21.50;44.20;100240.13;5045181;28;20043;-77
2023/05/28 10:27:15;;;;;;;7.53;3.05;;;;;;;21.60;44.29;100244.50;5044845;28;20061;-76
2023/05/28 10:29:42;;;;;;;7.18;2.72;;;;;;;21.62;43.30;100242.22;5044653;28;20526;-78
2023/05/28 10:32:07;;;;;;;7.68;3.25;;;;;;;21.78;43.50;100240.53;5044841;28;20037;-73
2023/05/28 10:34:35;;;;;;;21.92;5.18;;;;;;;21.92;43.79;100242.34;5044091;28;20102;-77
2023/05/28 10:37:04;;;;;;;14.38;3.60;;;;;;;21.92;43.20;100242.34;5044838;28;20037;-79
2023/05/28 10:39:43;;;;;;;9.40;3.22;;;;;;;22.04;44.40;100245.25;5044819;28;20056;-78
2023/05/28 10:42:10;;;;;;;6.88;2.58;;;;;;;22.02;43.71;100235.63;5043805;28;20033;-77
2023/05/28 10:45:03;;;;;;;10.98;3.28;;;;;;;22.07;44.19;100235.44;5044806;28;20024;-78
2023/05/28 10:47:37;;;;;;;10.07;3.03;;;;;;;22.15;44.36;100242.13;5044908;28;20029;-78
2023/05/28 10:50:08;;;;;;;8.77;2.97;;;;;;;22.20;44.59;100227.22;5044509;28;20493;-78
2023/05/28 10:52:34;;;;;;;7.80;3.67;;;;;;;22.25;43.20;100236.16;5042939;28;20518;-77
2023/05/28 10:55:03;;;;;;;5.53;2.45;;;;;;;22.37;43.24;100232.69;5044505;28;20520;-77
2023/05/28 10:57:48;;;;;;;5.32;2.53;;;;;;;22.37;42.77;100232.69;5043972;28;20037;-75
2023/05/28 11:00:23;;;;;;;6.15;2.30;;;;;;;22.42;42.99;100228.91;5044173;28;20025;-76
2023/05/28 11:02:52;;;;;;;6.65;2.45;;;;;;;22.57;43.10;100224.75;5044083;28;20067;-77
2023/05/28 11:05:24;;;;;;;8.18;2.40;;;;;;;22.65;43.37;100222.25;5043101;28;20045;-76
2023/05/28 11:07:50;;;;;;;12.95;2.45;;;;;;;22.74;42.52;100223.84;5042639;28;20746;-74
2023/05/28 11:10:16;;;;;;;7.75;3.40;;;;;;;22.72;43.19;100223.38;5043341;28;20041;-76
2023/05/28 11:12:43;;;;;;;8.10;2.70;;;;;;;22.66;42.35;100210.81;5043934;28;20036;-76
2023/05/28 11:15:11;;;;;;;8.20;2.15;;;;;;;22.72;42.41;100212.25;5043755;28;20036;-77